createdAt,value
2023-02-27T00:03:13.632Z,95750.00
2023-02-27T00:08:41.827Z,95746.00
2023-02-27T00:14:10.189Z,95741.00
2023-02-27T00:19:38.410Z,95746.00
2023-02-27T00:25:07.762Z,95751.00
2023-02-27T00:30:36.052Z,95749.00
2023-02-27T00:36:06.079Z,95740.00
2023-02-27T00:41:36.283Z,95756.00
2023-02-27T00:47:05.689Z,95751.00
2023-02-27T00:52:34.632Z,95748.00
2023-02-27T00:58:02.784Z,95750.00
2023-02-27T01:03:31.038Z,95753.00
2023-02-27T01:08:58.889Z,95753.00
2023-02-27T01:14:26.987Z,95764.00
2023-02-27T01:19:55.130Z,95760.00
2023-02-27T01:25:24.756Z,95752.00
2023-02-27T01:30:53.050Z,95755.00
2023-02-27T01:36:23.477Z,95756.00
2023-02-27T01:41:51.687Z,95753.00
2023-02-27T01:47:20.375Z,95748.00
2023-02-27T01:52:55.684Z,95740.00
2023-02-27T01:58:27.099Z,95750.00
2023-02-27T02:04:06.356Z,95752.00
2023-02-27T02:09:56.680Z,95755.00
2023-02-27T02:15:33.833Z,95765.00
2023-02-27T02:21:51.484Z,95762.00
2023-02-27T02:27:38.344Z,95754.00
2023-02-27T02:34:02.757Z,95756.00
2023-02-27T02:40:17.512Z,95748.00
2023-02-27T02:46:20.827Z,95756.00
2023-02-27T02:52:00.156Z,95749.00
2023-02-27T02:57:35.410Z,95753.00
2023-02-27T03:03:36.239Z,95757.00
2023-02-27T03:09:37.729Z,95759.00
2023-02-27T03:15:12.513Z,95745.00
2023-02-27T03:20:49.635Z,95747.00
2023-02-27T03:26:31.800Z,95760.00
2023-02-27T03:32:09.839Z,95760.00
2023-02-27T03:37:43.778Z,95766.00
2023-02-27T03:43:17.724Z,95763.00
2023-02-27T03:48:50.278Z,95771.00
2023-02-27T03:54:19.309Z,95770.00
2023-02-27T03:59:47.453Z,95785.00
2023-02-27T04:05:16.663Z,95772.00
2023-02-27T04:11:41.622Z,95770.00
2023-02-27T04:17:22.990Z,95778.00
2023-02-27T04:23:29.231Z,95782.00
2023-02-27T04:29:30.208Z,95782.00
2023-02-27T04:35:04.983Z,95781.00
2023-02-27T04:41:02.328Z,95779.00
2023-02-27T04:46:31.777Z,95785.00
2023-02-27T04:52:16.245Z,95789.00
2023-02-27T04:58:13.736Z,95785.00
2023-02-27T05:03:48.445Z,95787.00
2023-02-27T05:09:49.713Z,95784.00
2023-02-27T05:16:05.192Z,95782.00
2023-02-27T05:21:43.966Z,95773.00
2023-02-27T05:27:24.059Z,95788.00
2023-02-27T05:33:06.022Z,95788.00
2023-02-27T05:39:02.005Z,95774.00
2023-02-27T05:44:36.524Z,95783.00
2023-02-27T05:50:14.110Z,95793.00
2023-02-27T05:55:47.715Z,95789.00
2023-02-27T06:01:15.666Z,95782.00
2023-02-27T06:06:45.177Z,95785.00
2023-02-27T06:12:13.726Z,95785.00
2023-02-27T06:17:41.586Z,95788.00
2023-02-27T06:23:10.372Z,95795.00
2023-02-27T06:28:38.852Z,95812.00
2023-02-27T06:34:06.977Z,95813.00
2023-02-27T06:39:35.031Z,95807.00
2023-02-27T06:45:03.214Z,95817.00
2023-02-27T06:50:30.956Z,95822.00
2023-02-27T06:55:59.131Z,95820.00
2023-02-27T07:01:27.683Z,95822.00
2023-02-27T07:07:35.532Z,95820.00
2023-02-27T07:12:43.721Z,95814.00
2023-02-27T07:18:11.600Z,95820.00
2023-02-27T07:23:39.759Z,95818.00
2023-02-27T07:29:07.891Z,95820.00
2023-02-27T07:34:36.010Z,95823.00
2023-02-27T07:40:05.399Z,95839.00
2023-02-27T07:45:33.654Z,95840.00
2023-02-27T07:51:01.835Z,95849.00
2023-02-27T07:56:30.645Z,95835.00
2023-02-27T08:01:58.797Z,95840.00
2023-02-27T08:07:27.038Z,95852.00
2023-02-27T08:12:55.207Z,95848.00
2023-02-27T08:18:22.885Z,95863.00
2023-02-27T08:23:51.113Z,95860.00
2023-02-27T08:29:19.147Z,95863.00
2023-02-27T08:34:46.883Z,95863.00
2023-02-27T08:40:15.432Z,95858.00
2023-02-27T08:45:43.485Z,95880.00
2023-02-27T08:51:11.655Z,95887.00
2023-02-27T08:56:39.750Z,95885.00
2023-02-27T09:02:07.874Z,95892.00
2023-02-27T09:07:36.032Z,95914.00
2023-02-27T09:13:03.900Z,95902.00
2023-02-27T09:18:32.184Z,95893.00
2023-02-27T09:24:07.365Z,95899.00
2023-02-27T09:29:41.884Z,95913.00
2023-02-27T09:35:10.218Z,95915.00
2023-02-27T09:40:43.580Z,95926.00
2023-02-27T09:46:19.177Z,95925.00
2023-02-27T09:51:47.670Z,95933.00
2023-02-27T09:57:37.779Z,95935.00
2023-02-27T10:03:17.586Z,95946.00
2023-02-27T10:09:24.123Z,95943.00
2023-02-27T10:15:18.206Z,95953.00
2023-02-27T10:21:03.309Z,95961.00
2023-02-27T10:26:37.820Z,95974.00
2023-02-27T10:32:22.343Z,95960.00
2023-02-27T10:38:04.568Z,95961.00
2023-02-27T10:43:32.830Z,95971.00
2023-02-27T10:49:02.684Z,95970.00
2023-02-27T10:54:31.417Z,95972.00
2023-02-27T11:00:05.490Z,95978.00
2023-02-27T11:05:36.153Z,95979.00
2023-02-27T11:11:12.323Z,95983.00
2023-02-27T11:16:53.515Z,95985.00
2023-02-27T11:22:24.941Z,95977.00
2023-02-27T11:27:53.184Z,95986.00
2023-02-27T11:33:21.665Z,95960.00
2023-02-27T11:38:55.247Z,95954.00
2023-02-27T11:44:50.876Z,95978.00
2023-02-27T11:50:51.996Z,95970.00
2023-02-27T11:56:39.213Z,95963.00
2023-02-27T12:02:38.369Z,95972.00
2023-02-27T12:08:25.139Z,95963.00
2023-02-27T12:14:04.432Z,95946.00
2023-02-27T12:19:42.833Z,95965.00
2023-02-27T12:25:59.320Z,95967.00
2023-02-27T12:31:47.045Z,95953.00
2023-02-27T12:37:26.944Z,95967.00
2023-02-27T12:43:23.741Z,95961.00
2023-02-27T12:49:11.352Z,95970.00
2023-02-27T12:54:47.740Z,95959.00
2023-02-27T13:00:23.213Z,95956.00
2023-02-27T13:06:11.676Z,95972.00
2023-02-27T13:11:58.239Z,95973.00
2023-02-27T13:17:40.028Z,95951.00
2023-02-27T13:23:36.672Z,95962.00
2023-02-27T13:29:06.467Z,95971.00
2023-02-27T13:34:47.838Z,95972.00
2023-02-27T13:40:39.680Z,95963.00
2023-02-27T13:46:26.467Z,95966.00
2023-02-27T13:51:56.733Z,95970.00
2023-02-27T13:57:32.857Z,95972.00
2023-02-27T14:03:09.746Z,95967.00
2023-02-27T14:08:49.565Z,95971.00
2023-02-27T14:14:47.081Z,95980.00
2023-02-27T14:20:24.309Z,95983.00
2023-02-27T14:26:06.241Z,95960.00
2023-02-27T14:31:40.854Z,95965.00
2023-02-27T14:37:17.472Z,95972.00
2023-02-27T14:43:19.687Z,95976.00
2023-02-27T14:49:02.718Z,95973.00
2023-02-27T14:54:30.578Z,95958.00
2023-02-27T14:59:59.486Z,95978.00
2023-02-27T15:05:34.834Z,95976.00
2023-02-27T15:11:03.604Z,95977.00
2023-02-27T15:16:37.849Z,95982.00
2023-02-27T15:22:38.083Z,95984.00
2023-02-27T15:28:25.599Z,95990.00
2023-02-27T15:33:54.058Z,95987.00
2023-02-27T15:39:31.972Z,95994.00
2023-02-27T15:45:00.812Z,95992.00
2023-02-27T15:50:57.202Z,96002.00
2023-02-27T15:56:33.295Z,95998.00
2023-02-27T16:02:04.121Z,96009.00
2023-02-27T16:07:43.225Z,96007.00
2023-02-27T16:13:39.141Z,96019.00
2023-02-27T16:19:27.916Z,96032.00
2023-02-27T16:25:10.267Z,96036.00
2023-02-27T16:30:38.463Z,96046.00
2023-02-27T16:36:29.891Z,96037.00
2023-02-27T16:41:59.961Z,96040.00
2023-02-27T16:47:29.005Z,96046.00
2023-02-27T16:52:57.615Z,96058.00
2023-02-27T16:58:26.062Z,96059.00
2023-02-27T17:03:54.353Z,96070.00
2023-02-27T17:09:22.839Z,96073.00
2023-02-27T17:14:51.053Z,96080.00
2023-02-27T17:20:19.533Z,96084.00
2023-02-27T17:25:47.735Z,96084.00
2023-02-27T17:31:16.353Z,96103.00
2023-02-27T17:36:44.587Z,96098.00
2023-02-27T17:42:16.714Z,96104.00
2023-02-27T17:47:44.814Z,96113.00
2023-02-27T17:53:14.381Z,96120.00
2023-02-27T17:58:45.583Z,96120.00
2023-02-27T18:04:17.547Z,96127.00
2023-02-27T18:09:47.513Z,96130.00
2023-02-27T18:15:18.491Z,96138.00
2023-02-27T18:20:48.723Z,96146.00
2023-02-27T18:26:31.442Z,96142.00
2023-02-27T18:32:01.691Z,96141.00
2023-02-27T18:37:32.613Z,96149.00
2023-02-27T18:43:03.811Z,96141.00
2023-02-27T18:48:36.622Z,96141.00
2023-02-27T18:54:07.039Z,96133.00
2023-02-27T18:59:35.475Z,96160.00
2023-02-27T19:05:04.003Z,96158.00
2023-02-27T19:10:35.090Z,96153.00
2023-02-27T19:16:09.440Z,96156.00
2023-02-27T19:21:41.575Z,96150.00
2023-02-27T19:27:17.428Z,96153.00
2023-02-27T19:32:46.933Z,96160.00
2023-02-27T19:38:15.341Z,96155.00
2023-02-27T19:43:44.166Z,96156.00
2023-02-27T19:49:12.630Z,96155.00
2023-02-27T19:54:41.078Z,96148.00
2023-02-27T20:00:13.405Z,96137.00
2023-02-27T20:06:15.597Z,96146.00
2023-02-27T20:11:48.217Z,96150.00
2023-02-27T20:17:28.601Z,96148.00
2023-02-27T20:23:09.606Z,96134.00
2023-02-27T20:28:42.069Z,96138.00
2023-02-27T20:34:12.904Z,96144.00
2023-02-27T20:39:45.300Z,96130.00
2023-02-27T20:45:13.431Z,96128.00
2023-02-27T20:50:42.639Z,96121.00
2023-02-27T20:56:11.658Z,96127.00
2023-02-27T21:01:40.317Z,96120.00
2023-02-27T21:07:11.247Z,96108.00
2023-02-27T21:12:39.655Z,96112.00
2023-02-27T21:18:09.174Z,96117.00
2023-02-27T21:23:41.447Z,96122.00
2023-02-27T21:29:14.864Z,96106.00
2023-02-27T21:34:45.260Z,96122.00
2023-02-27T21:40:14.077Z,96114.00
2023-02-27T21:45:47.532Z,96113.00
2023-02-27T21:51:33.105Z,96097.00
2023-02-27T21:57:10.297Z,96100.00
2023-02-27T22:02:39.441Z,96090.00
2023-02-27T22:08:07.976Z,96094.00
2023-02-27T22:13:40.810Z,96086.00
2023-02-27T22:19:11.987Z,96084.00
2023-02-27T22:24:42.049Z,96074.00
2023-02-27T22:30:11.592Z,96069.00
2023-02-27T22:35:44.183Z,96066.00
2023-02-27T22:41:29.619Z,96057.00
2023-02-27T22:46:58.318Z,96054.00
2023-02-27T22:52:27.136Z,96050.00
2023-02-27T22:57:57.245Z,96042.00
2023-02-27T23:03:25.543Z,96045.00
2023-02-27T23:08:56.288Z,96041.00
2023-02-27T23:14:26.536Z,96043.00
2023-02-27T23:19:56.887Z,96029.00
2023-02-27T23:25:28.217Z,96029.00
2023-02-27T23:30:56.464Z,96045.00
2023-02-27T23:36:27.334Z,96038.00
2023-02-27T23:41:57.933Z,96035.00
2023-02-27T23:47:43.120Z,96037.00
2023-02-27T23:53:13.495Z,96028.00
2023-02-27T23:58:45.177Z,96029.00
